createdAt,value
2018-10-11T00:01:11.931Z,100015.98
2018-10-11T00:03:41.200Z,100020.72
2018-10-11T00:06:10.490Z,100028.86
2018-10-11T00:08:39.725Z,100019.45
2018-10-11T00:11:09.170Z,100026.52
2018-10-11T00:13:38.415Z,100023.41
2018-10-11T00:16:07.671Z,100023.11
2018-10-11T00:18:36.969Z,100022.15
2018-10-11T00:21:06.550Z,100015.94
2018-10-11T00:23:35.886Z,100028.75
2018-10-11T00:26:05.887Z,100027.81
2018-10-11T00:28:35.167Z,100024.00
2018-10-11T00:31:04.696Z,100023.28
2018-10-11T00:33:34.916Z,100022.83
2018-10-11T00:36:04.212Z,100028.22
2018-10-11T00:38:33.566Z,100028.53
2018-10-11T00:41:02.935Z,100036.12
2018-10-11T00:43:32.344Z,100029.33
2018-10-11T00:46:01.515Z,100029.93
2018-10-11T00:48:30.734Z,100026.99
2018-10-11T00:50:59.951Z,100028.28
2018-10-11T00:53:29.187Z,100025.53
2018-10-11T00:55:58.364Z,100014.77
2018-10-11T00:58:27.581Z,100005.40
2018-10-11T01:00:56.801Z,100004.98
2018-10-11T01:03:26.062Z,100003.98
2018-10-11T01:05:55.326Z,100007.89
2018-10-11T01:08:24.565Z,99999.50
2018-10-11T01:10:53.756Z,99995.98
2018-10-11T01:13:22.962Z,99989.77
2018-10-11T01:15:53.048Z,99982.20
2018-10-11T01:18:22.230Z,99985.73
2018-10-11T01:20:51.603Z,99977.28
2018-10-11T01:23:20.782Z,99975.03
2018-10-11T01:25:50.027Z,99971.81
2018-10-11T01:28:19.238Z,99976.73
2018-10-11T01:30:53.668Z,99983.12
2018-10-11T01:33:22.835Z,99984.80
2018-10-11T01:35:52.067Z,99979.21
2018-10-11T01:38:21.947Z,99976.13
2018-10-11T01:40:51.208Z,99976.73
2018-10-11T01:43:20.463Z,99973.58
2018-10-11T01:45:49.778Z,99976.88
2018-10-11T01:48:18.970Z,99970.59
2018-10-11T01:50:48.243Z,99968.55
2018-10-11T01:53:17.468Z,99970.30
2018-10-11T01:55:46.667Z,99965.73
2018-10-11T01:58:16.376Z,99966.70
2018-10-11T02:03:13.895Z,99957.38
2018-10-11T02:05:43.084Z,99957.98
2018-10-11T02:08:12.259Z,99947.44
2018-10-11T02:10:41.493Z,99946.17
2018-10-11T02:13:10.682Z,99944.61
2018-10-11T02:15:39.912Z,99953.27
2018-10-11T02:18:09.104Z,99954.45
2018-10-11T02:20:38.299Z,99939.06
2018-10-11T02:23:07.721Z,99934.05
2018-10-11T02:25:37.257Z,99930.53
2018-10-11T02:28:07.023Z,99926.80
2018-10-11T02:30:36.235Z,99932.13
2018-10-11T02:33:05.411Z,99935.08
2018-10-11T02:35:34.632Z,99943.04
2018-10-11T02:38:03.812Z,99949.51
2018-10-11T02:40:33.050Z,99950.47
2018-10-11T02:43:02.227Z,99946.22
2018-10-11T02:45:31.475Z,99953.80
2018-10-11T02:48:00.728Z,99941.09
2018-10-11T02:50:29.950Z,99934.28
2018-10-11T02:52:59.123Z,99938.92
2018-10-11T02:55:28.466Z,99947.20
2018-10-11T02:58:08.680Z,99938.62
2018-10-11T03:00:37.902Z,99938.66
2018-10-11T03:03:13.351Z,99947.63
2018-10-11T03:05:46.079Z,99947.60
2018-10-11T03:08:18.651Z,99954.87
2018-10-11T03:10:48.286Z,99954.44
2018-10-11T03:13:17.631Z,99944.52
2018-10-11T03:15:46.862Z,99948.86
2018-10-11T03:18:16.226Z,99951.97
2018-10-11T03:20:45.874Z,99962.20
2018-10-11T03:23:16.232Z,99950.50
2018-10-11T03:25:46.189Z,99947.20
2018-10-11T03:28:16.911Z,99950.23
2018-10-11T03:30:46.076Z,99956.33
2018-10-11T03:33:15.748Z,99954.69
2018-10-11T03:35:45.183Z,99958.07
2018-10-11T03:38:14.563Z,99953.33
2018-10-11T03:40:43.870Z,99963.87
2018-10-11T03:43:13.716Z,99966.27
2018-10-11T03:45:42.880Z,99961.40
2018-10-11T03:48:12.576Z,99953.42
2018-10-11T03:50:41.801Z,99944.66
2018-10-11T03:53:10.997Z,99947.56
2018-10-11T03:55:40.195Z,99946.31
2018-10-11T03:58:09.387Z,99943.09
2018-10-11T04:00:38.665Z,99945.59
2018-10-11T04:03:07.915Z,99948.49
2018-10-11T04:05:37.099Z,99964.30
2018-10-11T04:08:06.463Z,99962.31
2018-10-11T04:10:35.742Z,99958.70
2018-10-11T04:13:04.969Z,99956.45
2018-10-11T04:15:34.265Z,99970.89
2018-10-11T04:18:03.418Z,99980.20
2018-10-11T04:20:32.625Z,99970.91
2018-10-11T04:23:01.847Z,99968.02
2018-10-11T04:25:31.026Z,99965.33
2018-10-11T04:28:00.263Z,99976.29
2018-10-11T04:30:29.466Z,99968.63
2018-10-11T04:32:58.692Z,99967.45
2018-10-11T04:35:27.887Z,99970.03
2018-10-11T04:37:57.088Z,99962.91
2018-10-11T04:40:26.299Z,99967.37
2018-10-11T04:42:55.588Z,99968.50
2018-10-11T04:45:24.683Z,99973.74
2018-10-11T04:47:53.975Z,99974.09
2018-10-11T04:50:23.155Z,99973.56
2018-10-11T04:52:52.379Z,99976.34
2018-10-11T04:55:21.571Z,99968.06
2018-10-11T04:57:50.793Z,99978.61
2018-10-11T05:00:20.120Z,99976.31
2018-10-11T05:02:49.355Z,99984.38
2018-10-11T05:05:18.578Z,99986.79
2018-10-11T05:07:47.770Z,99987.91
2018-10-11T05:10:17.667Z,99994.52
2018-10-11T05:12:47.029Z,99987.59
2018-10-11T05:15:16.255Z,99982.20
2018-10-11T05:17:45.978Z,99988.92
2018-10-11T05:20:15.284Z,100005.21
2018-10-11T05:22:44.535Z,100006.14
2018-10-11T05:25:14.048Z,100006.11
2018-10-11T05:27:43.285Z,100008.90
2018-10-11T05:30:12.820Z,100012.92
2018-10-11T05:32:42.082Z,100006.11
2018-10-11T05:35:12.032Z,100008.38
2018-10-11T05:37:41.261Z,100001.08
2018-10-11T05:40:11.111Z,100006.24
2018-10-11T05:42:40.351Z,100006.01
2018-10-11T05:45:25.268Z,99999.19
2018-10-11T05:47:54.530Z,100005.01
2018-10-11T05:50:23.924Z,99995.09
2018-10-11T05:52:55.940Z,100004.72
2018-10-11T05:55:25.231Z,100008.69
2018-10-11T05:57:54.451Z,100006.16
2018-10-11T06:00:23.913Z,100000.59
2018-10-11T06:02:58.234Z,100004.29
2018-10-11T06:05:27.922Z,100001.49
2018-10-11T06:07:57.424Z,100007.80
2018-10-11T06:10:27.516Z,100013.39
2018-10-11T06:12:57.051Z,100018.02
2018-10-11T06:15:26.328Z,100024.19
2018-10-11T06:17:55.622Z,100016.13
2018-10-11T06:20:24.788Z,100003.03
2018-10-11T06:22:54.004Z,99998.97
2018-10-11T06:25:23.245Z,99996.41
2018-10-11T06:27:52.488Z,100002.30
2018-10-11T06:30:21.962Z,99999.50
2018-10-11T06:32:51.287Z,100006.08
2018-10-11T06:35:20.703Z,99998.19
2018-10-11T06:37:50.876Z,99993.00
2018-10-11T06:40:20.122Z,99998.70
2018-10-11T06:42:49.461Z,100000.56
2018-10-11T06:45:18.609Z,100007.30
2018-10-11T06:47:50.294Z,100015.38
2018-10-11T06:50:19.598Z,100029.65
2018-10-11T06:52:48.828Z,100036.84
2018-10-11T06:55:17.982Z,100036.39
2018-10-11T06:57:47.183Z,100029.06
2018-10-11T07:00:16.405Z,100034.12
2018-10-11T07:02:45.661Z,100038.87
2018-10-11T07:05:14.910Z,100041.53
2018-10-11T07:07:44.095Z,100036.69
2018-10-11T07:10:13.360Z,100034.75
2018-10-11T07:12:42.600Z,100039.72
2018-10-11T07:15:12.399Z,100052.42
2018-10-11T07:17:41.600Z,100056.45
2018-10-11T07:20:11.399Z,100060.44
2018-10-11T07:22:40.620Z,100063.56
2018-10-11T07:25:12.185Z,100077.02
2018-10-11T07:27:41.456Z,100088.00
2018-10-11T07:30:12.014Z,100095.65
2018-10-11T07:32:41.227Z,100091.11
2018-10-11T07:35:11.376Z,100095.89
2018-10-11T07:37:40.542Z,100096.34
2018-10-11T07:40:10.787Z,100092.22
2018-10-11T07:42:39.999Z,100098.23
2018-10-11T07:45:09.803Z,100103.80
2018-10-11T07:47:39.032Z,100106.84
2018-10-11T07:50:08.922Z,100105.89
2018-10-11T07:52:38.155Z,100105.13
2018-10-11T07:55:07.752Z,100113.28
2018-10-11T07:57:36.979Z,100114.14
2018-10-11T08:00:06.489Z,100112.63
2018-10-11T08:02:35.753Z,100104.92
2018-10-11T08:05:05.051Z,100104.02
2018-10-11T08:07:34.346Z,100105.48
2018-10-11T08:10:04.083Z,100111.59
2018-10-11T08:12:33.328Z,100115.30
2018-10-11T08:15:02.546Z,100116.95
2018-10-11T08:17:35.058Z,100119.00
2018-10-11T08:20:04.043Z,100118.95
2018-10-11T08:22:33.177Z,100114.30
2018-10-11T08:25:02.555Z,100117.80
2018-10-11T08:27:31.592Z,100116.56
2018-10-11T08:30:01.224Z,100117.17
2018-10-11T08:32:30.548Z,100116.58
2018-10-11T08:34:59.630Z,100120.14
2018-10-11T08:37:28.916Z,100123.59
2018-10-11T08:39:58.324Z,100117.55
2018-10-11T08:42:27.603Z,100115.36
2018-10-11T08:44:56.813Z,100114.91
2018-10-11T08:47:26.030Z,100110.89
2018-10-11T08:49:55.246Z,100113.26
2018-10-11T08:52:24.448Z,100107.00
2018-10-11T08:54:53.887Z,100113.41
2018-10-11T08:57:23.292Z,100115.15
2018-10-11T08:59:52.483Z,100117.06
2018-10-11T09:02:21.742Z,100112.69
2018-10-11T09:04:51.002Z,100119.70
2018-10-11T09:07:20.197Z,100118.84
2018-10-11T09:09:53.563Z,100121.06
2018-10-11T09:12:18.592Z,100119.47
2018-10-11T09:14:47.789Z,100119.45
2018-10-11T09:17:17.063Z,100113.80
2018-10-11T09:19:46.229Z,100114.14
2018-10-11T09:22:15.444Z,100115.73
2018-10-11T09:24:44.652Z,100119.89
2018-10-11T09:27:13.851Z,100119.03
2018-10-11T09:29:43.060Z,100116.91
2018-10-11T09:32:12.307Z,100119.72
2018-10-11T09:34:41.545Z,100117.80
2018-10-11T09:37:11.059Z,100117.52
2018-10-11T09:39:40.295Z,100118.42
2018-10-11T09:42:10.001Z,100122.33
2018-10-11T09:44:39.224Z,100123.77
2018-10-11T09:47:08.727Z,100118.92
2018-10-11T09:49:37.935Z,100126.75
2018-10-11T09:52:07.176Z,100120.74
2018-10-11T09:54:36.362Z,100126.18
2018-10-11T09:57:17.672Z,100116.82
2018-10-11T09:59:46.942Z,100112.88
2018-10-11T10:02:17.679Z,100114.73
2018-10-11T10:04:49.295Z,100113.01
2018-10-11T10:07:19.249Z,100113.56
2018-10-11T10:09:49.823Z,100113.26
2018-10-11T10:12:19.109Z,100111.38
2018-10-11T10:14:48.968Z,100117.50
2018-10-11T10:17:18.253Z,100114.00
2018-10-11T10:19:47.634Z,100105.02
2018-10-11T10:22:16.875Z,100096.71
2018-10-11T10:24:46.090Z,100105.02
2018-10-11T10:27:15.346Z,100108.98
2018-10-11T10:29:44.486Z,100111.39
2018-10-11T10:32:13.688Z,100097.93
2018-10-11T10:34:42.860Z,100104.97
2018-10-11T10:37:12.492Z,100104.92
2018-10-11T10:39:41.737Z,100105.93
2018-10-11T10:42:11.272Z,100095.44
2018-10-11T10:44:40.479Z,100097.91
2018-10-11T10:47:10.365Z,100087.85
2018-10-11T10:49:39.550Z,100084.06
2018-10-11T10:52:09.192Z,100081.40
2018-10-11T10:54:38.392Z,100090.03
2018-10-11T10:57:08.160Z,100083.18
2018-10-11T10:59:38.381Z,100083.10
2018-10-11T11:02:08.049Z,100081.23
2018-10-11T11:04:37.255Z,100079.84
2018-10-11T11:07:06.531Z,100077.63
2018-10-11T11:09:35.780Z,100075.66
2018-10-11T11:12:05.039Z,100068.09
2018-10-11T11:14:34.235Z,100068.86
2018-10-11T11:17:03.403Z,100070.89
2018-10-11T11:19:32.632Z,100070.89
2018-10-11T11:22:01.849Z,100072.86
2018-10-11T11:24:31.017Z,100065.91
2018-10-11T11:27:00.243Z,100067.23
2018-10-11T11:29:29.464Z,100069.00
2018-10-11T11:31:58.695Z,100065.81
2018-10-11T11:34:27.870Z,100067.97
2018-10-11T11:36:57.085Z,100061.97
2018-10-11T11:39:26.256Z,100067.63
2018-10-11T11:41:55.484Z,100054.53
2018-10-11T11:44:24.664Z,100062.33
2018-10-11T11:46:53.908Z,100056.48
2018-10-11T11:49:23.132Z,100055.94
2018-10-11T11:51:52.439Z,100055.66
2018-10-11T11:54:22.475Z,100050.70
2018-10-11T11:56:52.302Z,100055.52
2018-10-11T11:59:21.526Z,100054.13
2018-10-11T12:01:50.762Z,100060.11
2018-10-11T12:04:19.987Z,100050.61
2018-10-11T12:06:49.199Z,100051.81
2018-10-11T12:09:18.388Z,100049.55
2018-10-11T12:11:47.581Z,100048.91
2018-10-11T12:14:16.810Z,100048.50
2018-10-11T12:16:46.092Z,100052.53
2018-10-11T12:19:15.354Z,100054.15
2018-10-11T12:21:44.580Z,100049.65
2018-10-11T12:24:13.808Z,100057.02
2018-10-11T12:26:43.010Z,100051.40
2018-10-11T12:29:12.449Z,100047.49
2018-10-11T12:31:41.640Z,100044.28
2018-10-11T12:34:11.232Z,100036.97
2018-10-11T12:36:40.415Z,100031.53
2018-10-11T12:39:10.526Z,100033.97
2018-10-11T12:41:39.737Z,100035.77
2018-10-11T12:44:09.784Z,100032.34
2018-10-11T12:46:40.634Z,100021.44
2018-10-11T12:49:08.816Z,100032.23
2018-10-11T12:51:38.016Z,100038.19
2018-10-11T12:54:07.657Z,100030.31
2018-10-11T12:56:37.005Z,100031.20
2018-10-11T12:59:06.361Z,100027.41
2018-10-11T13:01:35.585Z,100034.25
2018-10-11T13:04:04.796Z,100036.14
2018-10-11T13:06:34.000Z,100038.57
2018-10-11T13:09:03.322Z,100041.02
2018-10-11T13:11:32.521Z,100046.80
2018-10-11T13:14:01.712Z,100046.75
2018-10-11T13:16:30.892Z,100046.41
2018-10-11T13:19:00.084Z,100052.34
2018-10-11T13:21:29.395Z,100047.33
2018-10-11T13:23:58.592Z,100054.28
2018-10-11T13:26:27.783Z,100056.97
2018-10-11T13:28:57.082Z,100067.13
2018-10-11T13:31:26.180Z,100065.19
2018-10-11T13:33:55.360Z,100061.64
2018-10-11T13:36:24.576Z,100058.73
2018-10-11T13:38:53.758Z,100060.39
2018-10-11T13:41:23.014Z,100060.73
2018-10-11T13:43:52.500Z,100059.45
2018-10-11T13:46:21.804Z,100061.95
2018-10-11T13:48:51.018Z,100062.06
2018-10-11T13:51:20.244Z,100066.76
2018-10-11T13:53:53.131Z,100064.42
2018-10-11T13:56:18.684Z,100062.86
2018-10-11T13:58:47.981Z,100061.58
2018-10-11T14:01:17.447Z,100053.14
2018-10-11T14:03:47.143Z,100055.34
2018-10-11T14:06:17.328Z,100050.39
2018-10-11T14:08:46.780Z,100045.78
2018-10-11T14:11:16.042Z,100044.97
2018-10-11T14:13:45.259Z,100044.81
2018-10-11T14:16:14.465Z,100055.84
2018-10-11T14:18:43.640Z,100052.92
2018-10-11T14:21:12.880Z,100055.52
2018-10-11T14:23:42.098Z,100049.53
2018-10-11T14:26:11.286Z,100051.75
2018-10-11T14:28:40.485Z,100044.39
2018-10-11T14:31:10.233Z,100046.75
2018-10-11T14:33:39.549Z,100050.12
2018-10-11T14:36:09.114Z,100044.95
2018-10-11T14:38:38.295Z,100041.97
2018-10-11T14:41:07.534Z,100037.03
2018-10-11T14:43:36.723Z,100043.60
2018-10-11T14:46:05.924Z,100040.20
2018-10-11T14:48:35.104Z,100038.05
2018-10-11T14:51:04.532Z,100040.41
2018-10-11T14:53:33.726Z,100040.92
2018-10-11T14:56:02.901Z,100037.72
2018-10-11T14:58:32.201Z,100038.38
2018-10-11T15:01:01.443Z,100040.29
2018-10-11T15:03:30.680Z,100038.73
2018-10-11T15:05:59.869Z,100033.86
2018-10-11T15:08:29.140Z,100037.57
2018-10-11T15:10:58.411Z,100032.34
2018-10-11T15:13:27.522Z,100030.70
2018-10-11T15:15:57.043Z,100034.80
2018-10-11T15:18:26.181Z,100038.56
2018-10-11T15:20:55.400Z,100033.11
2018-10-11T15:23:24.607Z,100033.70
2018-10-11T15:25:53.780Z,100033.66
2018-10-11T15:28:22.983Z,100041.29
2018-10-11T15:30:52.215Z,100044.22
2018-10-11T15:33:21.738Z,100042.52
2018-10-11T15:35:50.983Z,100036.27
2018-10-11T15:38:20.255Z,100027.31
2018-10-11T15:40:49.474Z,100028.89
2018-10-11T15:43:18.660Z,100025.30
2018-10-11T15:45:48.063Z,100023.58
2018-10-11T15:48:17.271Z,100021.12
2018-10-11T15:50:46.467Z,100030.14
2018-10-11T15:53:15.677Z,100044.63
2018-10-11T15:55:44.887Z,100041.54
2018-10-11T15:58:14.072Z,100049.65
2018-10-11T16:00:44.164Z,100053.06
2018-10-11T16:03:13.754Z,100061.43
2018-10-11T16:05:43.028Z,100060.24
2018-10-11T16:08:12.170Z,100067.76
2018-10-11T16:10:41.501Z,100058.41
2018-10-11T16:13:10.634Z,100056.50
2018-10-11T16:15:39.803Z,100049.41
2018-10-11T16:18:09.388Z,100055.29
2018-10-11T16:20:38.726Z,100061.19
2018-10-11T16:23:08.429Z,100066.02
2018-10-11T16:25:37.619Z,100063.53
2018-10-11T16:28:06.827Z,100057.27
2018-10-11T16:30:36.185Z,100060.23
2018-10-11T16:33:05.775Z,100061.20
2018-10-11T16:35:34.972Z,100059.27
2018-10-11T16:38:04.184Z,100071.17
2018-10-11T16:40:33.388Z,100072.79
2018-10-11T16:43:02.580Z,100076.56
2018-10-11T16:45:31.888Z,100076.28
2018-10-11T16:48:01.206Z,100079.00
2018-10-11T16:50:30.438Z,100074.09
2018-10-11T16:53:00.067Z,100070.84
2018-10-11T16:55:29.380Z,100074.09
2018-10-11T16:57:58.636Z,100077.92
2018-10-11T17:00:27.896Z,100077.83
2018-10-11T17:02:57.078Z,100078.06
2018-10-11T17:05:26.289Z,100082.65
2018-10-11T17:07:55.588Z,100081.04
2018-10-11T17:10:24.783Z,100078.09
2018-10-11T17:12:53.956Z,100082.51
2018-10-11T17:15:23.389Z,100081.86
2018-10-11T17:17:52.585Z,100078.48
2018-10-11T17:20:22.555Z,100085.39
2018-10-11T17:22:51.857Z,100085.33
2018-10-11T17:25:21.145Z,100099.98
2018-10-11T17:28:17.189Z,100098.51
2018-10-11T17:30:46.407Z,100107.37
2018-10-11T17:33:16.279Z,100109.17
2018-10-11T17:35:45.504Z,100117.77
2018-10-11T17:38:14.720Z,100120.46
2018-10-11T17:40:43.947Z,100117.68
2018-10-11T17:43:13.699Z,100124.73
2018-10-11T17:45:42.925Z,100132.28
2018-10-11T17:48:12.202Z,100135.25
2018-10-11T17:50:41.398Z,100137.14
2018-10-11T17:53:10.595Z,100142.23
2018-10-11T17:55:39.855Z,100138.63
2018-10-11T17:58:09.347Z,100145.41
2018-10-11T18:00:38.640Z,100145.67
2018-10-11T18:03:08.001Z,100143.45
2018-10-11T18:05:37.193Z,100147.75
2018-10-11T18:08:06.384Z,100144.93
2018-10-11T18:10:35.588Z,100146.54
2018-10-11T18:13:04.811Z,100146.47
2018-10-11T18:15:33.992Z,100154.08
2018-10-11T18:18:03.199Z,100158.09
2018-10-11T18:20:32.419Z,100155.37
2018-10-11T18:23:01.626Z,100153.40
2018-10-11T18:25:30.809Z,100153.90
2018-10-11T18:28:00.035Z,100159.62
2018-10-11T18:30:29.290Z,100159.80
2018-10-11T18:32:58.553Z,100144.57
2018-10-11T18:35:27.846Z,100141.47
2018-10-11T18:37:57.156Z,100143.75
2018-10-11T18:40:26.339Z,100150.80
2018-10-11T18:42:55.577Z,100153.72
2018-10-11T18:45:24.807Z,100158.22
2018-10-11T18:47:54.023Z,100142.92
2018-10-11T18:50:23.380Z,100152.59
2018-10-11T18:52:52.553Z,100153.66
2018-10-11T18:55:22.360Z,100160.70
2018-10-11T18:57:51.741Z,100159.84
2018-10-11T19:00:21.302Z,100162.80
2018-10-11T19:02:50.552Z,100159.19
2018-10-11T19:05:19.767Z,100162.44
2018-10-11T19:07:49.603Z,100168.94
2018-10-11T19:10:19.494Z,100167.49
2018-10-11T19:12:48.714Z,100162.89
2018-10-11T19:15:20.216Z,100173.21
2018-10-11T19:17:49.450Z,100169.14
2018-10-11T19:20:19.178Z,100169.67
2018-10-11T19:22:48.403Z,100166.92
2018-10-11T19:25:18.552Z,100175.06
2018-10-11T19:27:47.781Z,100172.87
2018-10-11T19:30:17.624Z,100175.06
2018-10-11T19:32:46.839Z,100177.98
2018-10-11T19:35:16.608Z,100168.73
2018-10-11T19:37:45.784Z,100166.31
2018-10-11T19:40:16.061Z,100166.27
2018-10-11T19:42:45.261Z,100163.02
2018-10-11T19:45:14.803Z,100162.48
2018-10-11T19:47:43.972Z,100164.09
2018-10-11T19:50:13.279Z,100156.39
2018-10-11T19:52:42.488Z,100166.76
2018-10-11T19:55:11.691Z,100165.81
2018-10-11T19:57:40.910Z,100168.81
2018-10-11T20:00:10.137Z,100169.31
2018-10-11T20:02:39.339Z,100176.05
2018-10-11T20:05:08.595Z,100176.25
2018-10-11T20:07:37.879Z,100174.52
2018-10-11T20:10:07.445Z,100178.30
2018-10-11T20:12:36.833Z,100179.83
2018-10-11T20:15:06.202Z,100172.92
2018-10-11T20:17:35.479Z,100176.41
2018-10-11T20:20:04.886Z,100171.39
2018-10-11T20:22:34.123Z,100171.59
2018-10-11T20:25:03.327Z,100175.03
2018-10-11T20:27:32.549Z,100173.55
2018-10-11T20:30:01.773Z,100178.45
2018-10-11T20:32:31.644Z,100189.30
2018-10-11T20:35:00.853Z,100188.05
2018-10-11T20:37:30.036Z,100200.42
2018-10-11T20:39:59.236Z,100205.12
2018-10-11T20:42:28.741Z,100212.55
2018-10-11T20:44:58.028Z,100220.53
2018-10-11T20:47:27.264Z,100223.42
2018-10-11T20:49:56.473Z,100229.91
2018-10-11T20:52:25.665Z,100225.90
2018-10-11T20:54:54.916Z,100228.08
2018-10-11T20:57:24.176Z,100224.84
2018-10-11T20:59:53.368Z,100226.39
2018-10-11T21:02:22.571Z,100223.34
2018-10-11T21:04:51.756Z,100232.27
2018-10-11T21:07:20.948Z,100232.37
2018-10-11T21:09:50.116Z,100233.95
2018-10-11T21:12:19.339Z,100235.17
2018-10-11T21:14:48.520Z,100227.13
2018-10-11T21:17:18.309Z,100231.11
2018-10-11T21:19:47.501Z,100229.41
2018-10-11T21:22:16.700Z,100239.61
2018-10-11T21:24:45.911Z,100237.34
2018-10-11T21:27:15.840Z,100239.94
2018-10-11T21:29:45.036Z,100242.06
2018-10-11T21:32:14.363Z,100243.95
2018-10-11T21:34:43.536Z,100242.27
2018-10-11T21:37:12.900Z,100241.44
2018-10-11T21:39:42.065Z,100241.38
2018-10-11T21:42:11.273Z,100237.56
2018-10-11T21:44:40.475Z,100243.74
2018-10-11T21:47:09.692Z,100246.69
2018-10-11T21:49:38.906Z,100246.92
2018-10-11T21:52:08.768Z,100249.84
2018-10-11T21:54:37.964Z,100248.48
2018-10-11T21:57:07.635Z,100252.14
2018-10-11T21:59:36.871Z,100247.72
2018-10-11T22:02:06.049Z,100243.19
2018-10-11T22:04:35.235Z,100235.83
2018-10-11T22:07:04.472Z,100235.38
2018-10-11T22:09:33.650Z,100241.11
2018-10-11T22:12:02.918Z,100236.24
2018-10-11T22:14:32.101Z,100239.30
2018-10-11T22:17:01.387Z,100245.53
2018-10-11T22:19:30.592Z,100249.89
2018-10-11T22:21:59.795Z,100262.08
2018-10-11T22:24:29.009Z,100258.70
2018-10-11T22:26:58.266Z,100260.89
2018-10-11T22:29:27.471Z,100255.38
2018-10-11T22:31:56.760Z,100252.55
2018-10-11T22:34:25.959Z,100256.53
2018-10-11T22:36:55.197Z,100260.59
2018-10-11T22:39:24.376Z,100254.06
2018-10-11T22:41:53.636Z,100249.31
2018-10-11T22:44:22.867Z,100247.30
2018-10-11T22:46:52.115Z,100248.13
2018-10-11T22:49:21.380Z,100247.37
2018-10-11T22:51:50.603Z,100243.47
2018-10-11T22:54:19.905Z,100247.06
2018-10-11T22:56:49.112Z,100246.63
2018-10-11T22:59:18.315Z,100249.55
2018-10-11T23:01:50.781Z,100256.08
2018-10-11T23:04:20.042Z,100267.50
2018-10-11T23:06:49.251Z,100273.61
2018-10-11T23:09:18.587Z,100277.04
2018-10-11T23:11:47.780Z,100282.97
2018-10-11T23:14:17.006Z,100284.67
2018-10-11T23:16:46.166Z,100280.89
2018-10-11T23:19:16.053Z,100286.22
2018-10-11T23:21:45.231Z,100297.02
2018-10-11T23:24:14.649Z,100293.50
2018-10-11T23:26:46.787Z,100301.87
2018-10-11T23:29:16.556Z,100308.47
2018-10-11T23:31:45.760Z,100313.61
2018-10-11T23:34:15.560Z,100307.94
2018-10-11T23:36:45.774Z,100311.38
2018-10-11T23:39:15.540Z,100320.02
2018-10-11T23:41:44.754Z,100318.14
2018-10-11T23:44:14.529Z,100318.22
2018-10-11T23:46:43.735Z,100323.58
2018-10-11T23:49:12.946Z,100314.55
2018-10-11T23:51:42.127Z,100317.36
2018-10-11T23:54:11.372Z,100334.00
2018-10-11T23:56:40.559Z,100335.61
2018-10-11T23:59:09.752Z,100345.61
